Time;durP1;ratioP1;P1;durP2;ratioP2;P2;SDS_P1;SDS_P2;PMS_P1;PMS_P2;Temp;Humidity;BMP_temperature;BMP_pressure;BME280_temperature;BME280_humidity;BME280_pressure;Samples;Min_cycle;Max_cycle;Signal;HPM_P1;HPM_P2
2021/09/28 00:02:26;;;;;;;8.20;3.70;;;;;;;10.00;78.53;99316.48;2137839;83;21043;-79
2021/09/28 00:05:27;;;;;;;5.87;3.63;;;;;;;9.96;78.54;99319.45;2137856;83;20970;-79
2021/09/28 00:08:28;;;;;;;8.10;4.03;;;;;;;9.93;78.41;99318.09;2137911;83;20987;-80
2021/09/28 00:11:29;;;;;;;6.77;3.50;;;;;;;9.92;78.59;99313.72;2137833;83;20939;-79
2021/09/28 00:14:30;;;;;;;7.57;3.80;;;;;;;9.87;78.49;99325.77;2137654;83;20972;-79
2021/09/28 00:17:31;;;;;;;7.40;3.80;;;;;;;9.84;78.57;99328.31;2137980;83;21377;-79
2021/09/28 00:20:37;;;;;;;7.57;3.63;;;;;;;9.78;78.41;99329.05;2137841;83;21003;-79
2021/09/28 00:23:35;;;;;;;50.57;7.03;;;;;;;9.74;78.64;99331.56;2182545;81;21044;-80
2021/09/28 00:26:36;;;;;;;18.33;5.37;;;;;;;9.70;78.64;99328.00;2182817;82;21459;-80
2021/09/28 00:29:37;;;;;;;9.90;4.13;;;;;;;9.68;78.78;99333.60;2182912;82;20968;-80
2021/09/28 00:32:38;;;;;;;8.07;4.43;;;;;;;9.66;78.80;99333.11;2182359;82;21399;-80
2021/09/28 00:35:38;;;;;;;6.00;3.97;;;;;;;9.61;78.99;99336.03;2182567;82;20937;-80
2021/09/28 00:38:40;;;;;;;148.43;14.50;;;;;;;9.58;79.04;99326.42;2182780;82;21011;-80
2021/09/28 00:41:40;;;;;;;14.07;4.27;;;;;;;9.58;79.36;99332.94;2182584;82;20948;-81
2021/09/28 00:44:43;;;;;;;5.80;3.60;;;;;;;9.58;79.26;99332.94;2182549;82;20921;-80
2021/09/28 00:47:44;;;;;;;6.37;3.80;;;;;;;9.58;79.13;99333.81;2182766;82;21320;-80
2021/09/28 00:50:45;;;;;;;6.07;4.17;;;;;;;9.56;79.16;99332.89;2182767;82;21001;-81
2021/09/28 00:53:46;;;;;;;7.07;3.97;;;;;;;9.50;79.35;99334.02;2181915;82;20979;-81
2021/09/28 00:56:47;;;;;;;6.43;3.93;;;;;;;9.50;79.87;99335.33;2172773;81;21043;-81
2021/09/28 00:59:48;;;;;;;18.43;4.90;;;;;;;9.53;79.08;99328.88;2172535;81;21009;-80
2021/09/28 01:02:49;;;;;;;5.77;3.77;;;;;;;9.50;79.28;99329.23;2172792;82;21048;-80
2021/09/28 01:05:50;;;;;;;6.63;3.83;;;;;;;9.45;79.11;99328.23;2173127;82;21402;-80
2021/09/28 01:08:51;;;;;;;8.53;3.80;;;;;;;9.41;79.28;99323.80;2173059;81;21032;-81
2021/09/28 01:11:51;;;;;;;7.90;4.00;;;;;;;9.39;79.30;99322.88;2172568;81;21015;-80
2021/09/28 01:14:52;;;;;;;9.97;3.93;;;;;;;9.34;79.43;99321.47;2173190;82;21313;-82
2021/09/28 01:17:52;;;;;;;5.90;4.03;;;;;;;9.30;79.62;99313.55;2172900;82;20946;-80
2021/09/28 01:20:53;;;;;;;6.77;3.70;;;;;;;9.26;79.54;99316.08;2172853;81;20988;-80
2021/09/28 01:23:53;;;;;;;7.07;3.70;;;;;;;9.25;79.58;99315.61;2173107;81;20933;-81
2021/09/28 01:26:54;;;;;;;6.33;3.83;;;;;;;9.25;79.67;99311.70;2172754;81;20956;-81
2021/09/28 01:29:54;;;;;;;29.87;6.60;;;;;;;9.24;79.69;99315.58;2173177;81;20929;-81
2021/09/28 01:32:55;;;;;;;5.17;3.50;;;;;;;9.20;79.71;99316.34;2173056;82;20933;-80
2021/09/28 01:35:55;;;;;;;5.10;3.90;;;;;;;9.18;79.64;99318.03;2173106;81;20945;-80
2021/09/28 01:38:56;;;;;;;9.47;3.60;;;;;;;9.18;79.72;99325.84;2173080;81;20984;-81
2021/09/28 01:41:56;;;;;;;8.53;3.90;;;;;;;9.16;79.65;99319.72;2173169;81;20983;-81
2021/09/28 01:44:57;;;;;;;5.47;3.70;;;;;;;9.07;79.51;99315.58;2173052;81;21352;-80
2021/09/28 01:47:57;;;;;;;7.10;3.80;;;;;;;9.03;79.98;99323.73;2173049;81;21008;-81
2021/09/28 01:50:57;;;;;;;10.03;4.60;;;;;;;9.00;79.78;99322.78;2173007;81;21019;-82
2021/09/28 01:53:58;;;;;;;7.00;4.10;;;;;;;8.94;79.98;99323.50;2172709;81;20980;-81
2021/09/28 01:56:58;;;;;;;6.77;3.80;;;;;;;8.90;80.04;99319.94;2172639;81;21091;-81
2021/09/28 01:59:59;;;;;;;15.73;3.90;;;;;;;8.84;80.05;99319.78;2173059;82;21328;-80
2021/09/28 02:03:00;;;;;;;5.90;3.37;;;;;;;8.83;81.76;99323.22;2172968;82;20961;-81
2021/09/28 02:06:00;;;;;;;13.93;4.30;;;;;;;9.74;82.23;99318.10;2173325;81;20960;-81
2021/09/28 02:09:01;;;;;;;8.97;3.63;;;;;;;9.69;79.17;99320.14;2173262;81;20937;-81
2021/09/28 02:12:02;;;;;;;7.30;3.53;;;;;;;9.43;78.64;99318.20;2172810;82;21015;-80
2021/09/28 02:15:02;;;;;;;9.77;3.67;;;;;;;9.25;78.85;99319.94;2173191;82;21043;-80
2021/09/28 02:18:03;;;;;;;5.93;3.53;;;;;;;9.12;79.07;99324.39;2173365;81;20964;-80
2021/09/28 02:21:04;;;;;;;6.93;3.90;;;;;;;9.05;79.12;99328.98;2173222;81;20945;-80
2021/09/28 02:24:04;;;;;;;6.57;4.50;;;;;;;8.99;79.26;99332.73;2172781;82;21313;-80
2021/09/28 02:27:05;;;;;;;11.00;3.90;;;;;;;8.90;79.44;99327.75;2172267;82;21368;-81
2021/09/28 02:30:06;;;;;;;7.87;4.17;;;;;;;9.50;84.29;99327.51;2172136;82;21007;-80
2021/09/28 02:33:06;;;;;;;8.07;4.07;;;;;;;11.27;80.80;99329.91;2172327;81;21004;-80
2021/09/28 02:36:07;;;;;;;7.70;4.67;;;;;;;11.03;76.67;99322.92;2172234;81;20964;-79
2021/09/28 02:39:10;;;;;;;6.83;4.27;;;;;;;10.45;75.49;99327.06;2171933;81;20952;-82
2021/09/28 02:42:11;;;;;;;10.60;4.17;;;;;;;9.95;75.56;99332.04;2172268;82;20933;-81
2021/09/28 02:45:12;;;;;;;10.37;4.23;;;;;;;9.56;75.86;99330.29;2172195;81;20980;-81
2021/09/28 02:48:12;;;;;;;12.00;5.00;;;;;;;9.25;76.14;99331.24;2173019;82;21269;-81
2021/09/28 02:51:13;;;;;;;8.10;4.83;;;;;;;9.04;76.54;99336.34;2173202;82;20925;-81
2021/09/28 02:54:13;;;;;;;24.23;5.07;;;;;;;8.81;77.06;99336.62;2173740;81;20932;-80
2021/09/28 02:57:14;;;;;;;10.63;4.70;;;;;;;8.63;77.25;99333.48;2189136;81;21036;-80
2021/09/28 03:00:15;;;;;;;18.93;4.03;;;;;;;8.50;77.21;99339.20;2189700;81;20976;-80
2021/09/28 03:03:15;;;;;;;19.60;5.03;;;;;;;8.30;76.90;99332.98;2189042;81;21005;-80
2021/09/28 03:06:16;;;;;;;13.97;5.20;;;;;;;8.04;76.92;99338.27;2189161;81;20959;-81
2021/09/28 03:09:17;;;;;;;13.50;4.87;;;;;;;7.86;77.31;99342.50;2189521;81;20987;-80
2021/09/28 03:12:20;;;;;;;14.10;5.97;;;;;;;7.70;77.60;99339.81;2189517;81;21304;-81
2021/09/28 03:15:20;;;;;;;8.77;4.93;;;;;;;7.55;77.87;99338.91;2189514;81;20944;-81
2021/09/28 03:18:21;;;;;;;11.70;4.67;;;;;;;7.46;78.12;99341.64;2189727;81;20968;-81
2021/09/28 03:21:21;;;;;;;8.50;4.60;;;;;;;7.40;78.39;99339.73;2189621;81;20992;-81
2021/09/28 03:24:22;;;;;;;11.07;5.33;;;;;;;7.35;78.67;99344.77;2188884;81;21335;-80
2021/09/28 03:27:22;;;;;;;11.97;6.70;;;;;;;7.32;79.00;99342.50;2188865;81;20984;-80
2021/09/28 03:30:23;;;;;;;15.17;7.83;;;;;;;7.30;79.56;99348.94;2189544;81;21011;-80
2021/09/28 03:33:23;;;;;;;10.70;7.53;;;;;;;7.28;79.22;99351.02;2189323;81;20968;-79
2021/09/28 03:36:27;;;;;;;10.30;7.50;;;;;;;7.24;79.33;99356.52;2189415;81;20952;-79
2021/09/28 03:39:28;;;;;;;10.70;6.10;;;;;;;7.20;79.14;99356.38;2189618;81;21339;-81
2021/09/28 03:42:30;;;;;;;10.30;5.50;;;;;;;7.16;80.79;99359.28;2189462;81;20979;-79
2021/09/28 03:45:30;;;;;;;15.60;6.50;;;;;;;8.74;81.46;99356.81;2189251;81;21108;-80
2021/09/28 03:48:31;;;;;;;14.43;7.77;;;;;;;8.61;77.98;99358.59;2188578;81;21575;-80
2021/09/28 03:51:32;;;;;;;13.83;6.90;;;;;;;8.17;76.77;99350.79;2188219;81;20947;-79
2021/09/28 03:54:32;;;;;;;12.47;5.93;;;;;;;7.79;76.83;99357.41;2186393;81;21450;-80
2021/09/28 03:57:33;;;;;;;8.93;6.20;;;;;;;7.51;77.00;99359.14;2171501;82;21084;-80
2021/09/28 04:00:34;;;;;;;12.80;6.40;;;;;;;7.26;77.27;99356.58;2171798;82;20972;-80
2021/09/28 04:03:34;;;;;;;10.30;6.03;;;;;;;7.05;77.65;99352.85;2171407;81;20937;-80
2021/09/28 04:06:35;;;;;;;6.23;5.40;;;;;;;6.88;78.05;99360.03;2171935;81;21344;-80
2021/09/28 04:09:35;;;;;;;304.60;23.00;;;;;;;6.81;78.33;99364.95;2172048;81;20984;-81
2021/09/28 04:12:36;;;;;;;16.53;5.97;;;;;;;6.77;78.64;99360.08;2172195;81;20953;-80
2021/09/28 04:15:40;;;;;;;6.97;5.37;;;;;;;6.74;78.73;99365.16;2172756;81;20972;-80
2021/09/28 04:18:40;;;;;;;12.00;5.85;;;;;;;6.64;78.92;99363.06;2173286;81;21332;-80
2021/09/28 04:21:41;;;;;;;25.47;5.70;;;;;;;6.57;79.05;99357.19;2173101;81;20977;-80
2021/09/28 04:24:41;;;;;;;90.93;8.50;;;;;;;6.59;79.85;99361.61;2171617;82;20945;-82
2021/09/28 04:27:42;;;;;;;6.37;4.77;;;;;;;6.64;80.46;99366.54;2172166;82;21040;-80
2021/09/28 04:30:42;;;;;;;9.37;4.57;;;;;;;6.69;80.11;99366.29;2173031;82;21329;-80
2021/09/28 04:33:43;;;;;;;7.50;5.23;;;;;;;6.70;80.48;99371.95;2172741;81;20956;-79
2021/09/28 04:36:44;;;;;;;11.73;4.60;;;;;;;6.73;80.23;99377.66;2172154;81;20945;-80
2021/09/28 04:39:44;;;;;;;9.67;6.10;;;;;;;6.74;80.30;99379.42;2172175;81;20981;-81
2021/09/28 04:42:44;;;;;;;11.77;5.07;;;;;;;6.75;80.25;99380.31;2172853;81;20945;-80
2021/09/28 04:45:45;;;;;;;46.23;6.23;;;;;;;6.77;80.17;99383.42;2172375;82;20976;-80
2021/09/28 04:48:45;;;;;;;7.77;4.00;;;;;;;6.80;80.30;99383.53;2172152;81;20953;-80
2021/09/28 04:51:46;;;;;;;41.97;6.10;;;;;;;6.83;79.97;99384.05;2171572;82;21424;-80
2021/09/28 04:54:47;;;;;;;31.10;5.47;;;;;;;6.82;79.82;99384.88;2173096;81;20984;-81
2021/09/28 04:57:47;;;;;;;9.63;4.53;;;;;;;6.83;80.58;99390.13;2188677;81;20967;-79
2021/09/28 05:00:48;;;;;;;10.77;5.60;;;;;;;6.94;80.00;99395.31;2188402;81;21277;-81
2021/09/28 05:03:48;;;;;;;16.03;6.30;;;;;;;6.95;80.08;99403.56;2188118;81;20940;-78
2021/09/28 05:06:49;;;;;;;9.23;5.73;;;;;;;6.94;80.31;99413.48;2188281;81;20972;-80
2021/09/28 05:09:49;;;;;;;10.40;5.40;;;;;;;6.93;80.17;99420.77;2188288;81;20959;-80
2021/09/28 05:12:50;;;;;;;6.80;4.50;;;;;;;6.94;80.53;99423.86;2188681;81;20971;-80
2021/09/28 05:15:50;;;;;;;9.57;4.80;;;;;;;6.96;80.34;99424.80;2189699;81;20972;-81
2021/09/28 05:18:51;;;;;;;6.60;4.30;;;;;;;6.99;79.87;99423.61;2190285;81;20968;-80
2021/09/28 05:21:51;;;;;;;13.93;5.10;;;;;;;6.99;79.62;99425.32;2189891;81;20979;-80
2021/09/28 05:24:52;;;;;;;10.03;4.73;;;;;;;7.05;79.62;99427.25;2189166;81;21424;-80
2021/09/28 05:27:53;;;;;;;53.63;9.00;;;;;;;7.11;79.75;99426.16;2188542;81;21018;-81
2021/09/28 05:30:54;;;;;;;9.17;5.70;;;;;;;7.23;79.68;99427.88;2188869;81;20951;-80
2021/09/28 05:33:55;;;;;;;6.97;4.43;;;;;;;7.30;79.54;99428.56;2189156;81;21019;-81
2021/09/28 05:36:55;;;;;;;17.53;5.97;;;;;;;7.40;79.42;99432.34;2189730;81;21367;-83
2021/09/28 05:39:56;;;;;;;19.73;6.60;;;;;;;7.68;85.78;99431.13;2188871;81;20952;-84
2021/09/28 05:42:56;;;;;;;10.80;5.30;;;;;;;9.78;91.85;99428.13;2188839;81;20945;-82
2021/09/28 05:45:57;;;;;;;13.20;4.90;;;;;;;11.51;89.09;99427.47;2188397;81;21369;-83
2021/09/28 05:48:57;;;;;;;17.23;5.80;;;;;;;12.66;84.82;99422.28;2188502;81;20983;-83
2021/09/28 05:51:59;;;;;;;11.83;5.60;;;;;;;13.65;82.03;99416.84;2188385;81;20944;-84
2021/09/28 05:54:59;;;;;;;12.80;5.05;;;;;;;14.42;79.18;99421.83;2188596;81;21011;-83
2021/09/28 05:58:00;;;;;;;17.73;5.55;;;;;;;14.97;74.97;99424.30;2188017;81;20956;-83
2021/09/28 06:01:00;;;;;;;23.83;6.08;;;;;;;15.46;73.25;99431.42;2187608;81;20940;-83
2021/09/28 06:04:01;;;;;;;8.00;4.58;;;;;;;15.85;70.46;99428.88;2187697;81;20963;-83
2021/09/28 06:07:01;;;;;;;10.58;3.98;;;;;;;16.18;69.71;99423.16;2188415;81;20971;-83
2021/09/28 06:10:02;;;;;;;45.33;6.90;;;;;;;16.44;68.23;99422.66;2189061;81;20960;-82
2021/09/28 06:13:02;;;;;;;6.62;3.33;;;;;;;16.65;67.16;99430.09;2188094;81;20979;-81
2021/09/28 06:16:03;;;;;;;8.53;3.60;;;;;;;16.87;66.45;99434.44;2187864;81;20972;-80
2021/09/28 06:19:03;;;;;;;5.70;3.10;;;;;;;16.97;63.67;99434.84;2188414;81;21439;-83
2021/09/28 06:22:04;;;;;;;15.63;3.80;;;;;;;17.25;65.16;99439.53;2188986;81;20987;-81
2021/09/28 06:25:05;;;;;;;11.43;3.87;;;;;;;17.68;62.29;99432.72;2187649;81;21391;-81
2021/09/28 06:28:05;;;;;;;7.40;3.45;;;;;;;17.93;61.29;99440.88;2187935;81;21053;-81
2021/09/28 06:31:06;;;;;;;8.85;3.15;;;;;;;18.05;60.98;99438.57;2187907;81;21395;-82
2021/09/28 06:34:06;;;;;;;13.20;3.77;;;;;;;18.15;58.87;99443.76;2187389;81;20976;-81
2021/09/28 06:37:07;;;;;;;9.65;3.37;;;;;;;18.60;57.40;99444.22;2187447;81;20987;-83
2021/09/28 06:40:07;;;;;;;10.23;3.47;;;;;;;18.60;57.40;99444.22;2187637;81;20952;-81
2021/09/28 06:43:08;;;;;;;8.00;3.08;;;;;;;18.67;56.58;99442.41;2187935;81;21400;-82
2021/09/28 06:46:09;;;;;;;13.30;3.22;;;;;;;18.45;55.59;99443.94;2189062;81;21007;-80
2021/09/28 06:49:09;;;;;;;21.05;6.25;;;;;;;18.18;54.32;99453.87;2188830;81;20971;-82
2021/09/28 06:52:11;;;;;;;6.53;3.55;;;;;;;18.13;53.19;99454.78;2189181;81;20972;-83
2021/09/28 06:55:11;;;;;;;7.47;3.40;;;;;;;17.44;54.48;99462.76;2187751;81;21315;-78
2021/09/28 06:58:12;;;;;;;6.40;3.08;;;;;;;17.25;54.41;99458.44;2170498;82;20969;-81
2021/09/28 07:01:13;;;;;;;6.30;3.25;;;;;;;17.26;55.14;99455.79;2171979;81;21356;-83
2021/09/28 07:04:13;;;;;;;5.80;2.85;;;;;;;17.27;56.63;99461.94;2172352;82;20937;-82
2021/09/28 07:07:14;;;;;;;5.40;2.87;;;;;;;17.57;56.13;99459.16;2172269;82;21060;-81
2021/09/28 07:10:14;;;;;;;5.85;2.87;;;;;;;17.66;56.70;99451.20;2172566;81;20976;-81
2021/09/28 07:13:15;;;;;;;9.75;3.35;;;;;;;17.88;57.34;99456.33;2172387;82;21032;-81
2021/09/28 07:16:15;;;;;;;5.92;3.17;;;;;;;18.48;56.64;99457.56;2172031;81;20948;-82
2021/09/28 07:19:16;;;;;;;3.20;2.80;;;;;;;18.91;55.50;99458.44;2172118;81;21000;-82
2021/09/28 07:22:16;;;;;;;4.92;2.60;;;;;;;19.17;54.82;99457.70;2172669;81;21000;-81
2021/09/28 07:25:17;;;;;;;3.80;3.00;;;;;;;19.33;54.70;99460.56;2171949;82;20984;-82
2021/09/28 07:28:18;;;;;;;6.67;2.95;;;;;;;19.55;54.28;99467.79;2171416;81;21035;-82
2021/09/28 07:31:18;;;;;;;6.58;2.90;;;;;;;19.67;52.87;99474.23;2171144;82;20995;-81
2021/09/28 07:34:19;;;;;;;6.20;3.17;;;;;;;19.68;53.32;99477.30;2171376;82;20937;-82
2021/09/28 07:37:24;;;;;;;4.30;2.62;;;;;;;19.93;53.21;99471.62;2172161;81;20995;-82
2021/09/28 07:40:22;;;;;;;5.25;3.05;;;;;;;20.08;51.71;99478.03;2126992;84;21034;-81
2021/09/28 07:43:22;;;;;;;5.65;3.80;;;;;;;19.83;49.95;99480.62;2128181;84;20979;-81
2021/09/28 07:46:23;;;;;;;7.20;3.12;;;;;;;19.61;50.73;99484.91;2127578;84;20995;-82
2021/09/28 07:49:23;;;;;;;43.48;5.87;;;;;;;19.50;51.26;99489.45;2127726;84;20963;-80
2021/09/28 07:52:24;;;;;;;10.35;3.10;;;;;;;19.43;51.72;99493.08;2128102;84;21310;-82
2021/09/28 07:55:26;;;;;;;11.48;3.27;;;;;;;19.45;52.25;99501.88;2127957;83;20971;-81
2021/09/28 07:58:27;;;;;;;11.70;3.72;;;;;;;19.70;51.88;99504.64;2135919;83;21677;-81
2021/09/28 08:01:28;;;;;;;8.38;3.20;;;;;;;19.63;50.78;99506.08;2135536;83;21034;-81
2021/09/28 08:04:29;;;;;;;10.20;3.10;;;;;;;19.61;51.22;99502.58;2136186;83;21433;-82
2021/09/28 08:07:29;;;;;;;12.00;3.60;;;;;;;19.63;51.21;99506.95;2136406;83;21018;-81
2021/09/28 08:10:30;;;;;;;7.47;3.22;;;;;;;19.71;52.08;99506.84;2137103;83;20916;-82
2021/09/28 08:13:31;;;;;;;81.12;8.15;;;;;;;19.96;51.19;99503.41;2137090;83;21016;-79
2021/09/28 08:16:34;;;;;;;12.98;3.62;;;;;;;20.11;51.52;99504.48;2137292;83;21061;-80
2021/09/28 08:19:39;;;;;;;9.48;3.17;;;;;;;20.13;50.17;99511.09;2136837;83;21008;-84
2021/09/28 08:22:38;;;;;;;7.37;3.20;;;;;;;19.59;48.61;99515.84;2181371;81;20968;-82
2021/09/28 08:29:11;;;;;;;16.42;4.70;;;;;;;19.08;51.58;99526.16;2109088;83;21089;-82
2021/09/28 08:32:12;;;;;;;12.68;3.72;;;;;;;19.47;52.09;99523.91;2137472;83;21003;-83
2021/09/28 08:35:12;;;;;;;13.22;3.47;;;;;;;19.92;51.98;99526.39;2137622;83;20991;-80
2021/09/28 08:38:14;;;;;;;4.12;3.30;;;;;;;20.01;49.69;99519.66;2136669;83;20935;-82
2021/09/28 08:41:15;;;;;;;46.25;6.05;;;;;;;19.39;48.89;99524.02;2136798;83;20963;-79
2021/09/28 08:44:16;;;;;;;24.35;4.20;;;;;;;18.72;50.03;99528.73;2136758;83;20976;-82
2021/09/28 08:47:16;;;;;;;33.45;4.60;;;;;;;18.42;51.60;99526.35;2136499;83;21015;-82
2021/09/28 08:50:17;;;;;;;21.65;5.08;;;;;;;18.98;53.98;99521.84;2137173;83;20952;-81
2021/09/28 08:53:17;;;;;;;97.55;9.08;;;;;;;19.61;52.33;99523.76;2137353;83;20963;-83
2021/09/28 08:56:18;;;;;;;26.37;5.08;;;;;;;19.66;51.48;99524.57;2136818;83;21039;-82
2021/09/28 08:59:18;;;;;;;12.65;3.60;;;;;;;19.72;50.35;99522.71;2136998;83;20956;-81
2021/09/28 09:02:19;;;;;;;18.92;5.22;;;;;;;19.68;50.19;99521.45;2137176;83;21384;-82
2021/09/28 09:05:20;;;;;;;16.85;4.65;;;;;;;19.54;51.74;99521.64;2136857;83;21430;-81
2021/09/28 09:08:20;;;;;;;35.83;6.40;;;;;;;19.79;50.33;99525.27;2136610;83;20912;-83
2021/09/28 09:11:21;;;;;;;19.50;5.03;;;;;;;19.73;51.07;99519.16;2136859;83;20976;-82
2021/09/28 09:14:22;;;;;;;20.80;4.72;;;;;;;19.97;51.23;99521.93;2137367;83;21074;-83
2021/09/28 09:17:23;;;;;;;13.83;4.75;;;;;;;20.01;50.19;99515.69;2137325;83;21023;-82
2021/09/28 09:20:23;;;;;;;22.02;5.22;;;;;;;20.31;51.61;99513.43;2136879;83;21035;-82
2021/09/28 09:23:28;;;;;;;21.40;4.90;;;;;;;20.64;50.65;99514.65;2136506;83;21027;-83
2021/09/28 09:26:28;;;;;;;19.30;5.12;;;;;;;20.91;50.05;99519.47;2137459;83;20995;-83
2021/09/28 09:29:29;;;;;;;15.30;4.72;;;;;;;20.86;48.71;99512.05;2137371;83;20995;-82
2021/09/28 09:32:29;;;;;;;14.28;4.65;;;;;;;20.85;49.74;99522.24;2137462;83;20971;-82
2021/09/28 09:35:30;;;;;;;14.58;5.37;;;;;;;21.06;49.35;99517.42;2137410;83;21331;-82
2021/09/28 09:38:30;;;;;;;8.20;4.40;;;;;;;20.82;48.92;99516.99;2138165;83;21377;-84
2021/09/28 09:41:31;;;;;;;10.55;5.00;;;;;;;21.04;48.95;99521.44;2137693;83;20944;-83
2021/09/28 09:44:33;;;;;;;12.23;4.97;;;;;;;20.98;48.81;99521.55;2109215;83;20978;-85
2021/09/28 09:47:34;;;;;;;93.87;11.08;;;;;;;21.08;48.95;99512.50;2137365;83;21619;-82
2021/09/28 09:50:36;;;;;;;10.65;5.00;;;;;;;21.21;48.93;99522.42;2182394;81;20960;-85
2021/09/28 09:53:36;;;;;;;147.62;16.23;;;;;;;21.11;47.41;99519.08;2137177;83;21370;-83
2021/09/28 09:59:40;;;;;;;14.73;4.67;;;;;;;21.08;49.04;99519.14;2161788;82;21062;-81
2021/09/28 10:02:40;;;;;;;16.73;5.33;;;;;;;20.88;47.96;99519.53;2171240;81;20953;-83
2021/09/28 10:05:41;;;;;;;16.62;5.35;;;;;;;20.77;48.00;99521.93;2171454;81;20992;-82
2021/09/28 10:08:45;;;;;;;22.58;9.90;;;;;;;20.91;49.96;99519.47;2171100;81;20972;-81
2021/09/28 10:11:46;;;;;;;44.48;8.75;;;;;;;21.25;48.36;99521.03;2170159;81;21048;-82
2021/09/28 10:14:47;;;;;;;25.62;6.50;;;;;;;21.29;47.44;99525.38;2170511;82;21656;-82
2021/09/28 10:17:47;;;;;;;23.87;5.45;;;;;;;21.42;45.67;99518.02;2171084;81;20965;-81
2021/09/28 10:20:51;;;;;;;24.60;6.00;;;;;;;21.44;45.45;99522.84;2171575;82;20968;-81
2021/09/28 10:23:51;;;;;;;15.18;5.40;;;;;;;21.25;45.10;99529.00;2172352;81;20961;-80
2021/09/28 10:26:52;;;;;;;38.45;7.15;;;;;;;20.95;46.38;99529.13;2171532;81;21384;-81
2021/09/28 10:29:52;;;;;;;23.80;5.42;;;;;;;20.84;47.41;99528.45;2171311;82;21001;-80
2021/09/28 10:35:55;;;;;;;12.20;4.50;;;;;;;20.74;48.44;99536.58;2160717;82;20971;-82
2021/09/28 10:39:02;;;;;;;13.00;5.25;;;;;;;20.81;47.79;99529.84;2171024;81;21297;-85
2021/09/28 10:42:01;;;;;;;8.60;4.20;;;;;;;21.12;47.88;99539.86;2126327;83;21055;-82
2021/09/28 10:45:02;;;;;;;37.17;5.33;;;;;;;21.03;47.22;99539.59;2127335;84;20992;-82
2021/09/28 10:48:06;;;;;;;27.42;5.33;;;;;;;21.16;47.64;99537.56;2128337;84;20952;-83
2021/09/28 10:51:06;;;;;;;;;;;;;;;21.33;45.96;99542.11;2175042;81;21095;-84
2021/09/28 10:54:07;;;;;;;22.15;4.33;;;;;;;21.29;45.47;99538.65;2172244;81;20113;-83
2021/09/28 10:57:07;;;;;;;21.05;4.78;;;;;;;21.26;45.41;99542.70;2177212;81;21042;-80
2021/09/28 11:00:08;;;;;;;22.98;4.60;;;;;;;21.34;45.57;99538.55;2188367;81;20940;-82
2021/09/28 11:03:09;;;;;;;22.13;4.30;;;;;;;21.27;45.22;99532.50;2188623;81;20995;-82
2021/09/28 11:06:12;;;;;;;17.30;4.55;;;;;;;21.13;45.67;99530.54;2187954;81;20956;-83
2021/09/28 11:09:14;;;;;;;16.15;5.53;;;;;;;21.38;45.37;99524.30;2188606;81;21032;-82
2021/09/28 11:12:18;;;;;;;15.80;4.70;;;;;;;21.40;44.28;99526.47;2189400;81;21035;-83
2021/09/28 11:15:20;;;;;;;9.90;4.95;;;;;;;21.35;44.64;99525.70;2189153;81;21443;-83
2021/09/28 11:18:21;;;;;;;8.95;3.62;;;;;;;21.44;44.16;99514.88;2188518;81;21004;-82
2021/09/28 11:21:21;;;;;;;7.03;3.70;;;;;;;21.35;44.21;99515.53;2188797;81;20976;-81
2021/09/28 11:24:22;;;;;;;44.08;7.03;;;;;;;21.30;44.68;99524.92;2189098;81;21323;-83
2021/09/28 11:27:22;;;;;;;37.83;6.55;;;;;;;21.43;44.60;99525.08;2188792;81;21023;-82
2021/09/28 11:30:23;;;;;;;27.10;5.50;;;;;;;21.48;44.20;99517.89;2189310;81;20995;-84
2021/09/28 11:33:23;;;;;;;19.37;4.50;;;;;;;21.31;43.97;99521.36;2189360;81;20979;-83
2021/09/28 11:36:24;;;;;;;20.52;4.22;;;;;;;21.08;44.31;99526.23;2188794;81;21011;-84
2021/09/28 11:39:26;;;;;;;32.03;4.58;;;;;;;21.12;44.32;99521.28;2188365;81;20956;-82
2021/09/28 11:42:27;;;;;;;20.75;4.47;;;;;;;21.08;44.74;99523.58;2189408;81;20991;-83
2021/09/28 11:45:28;;;;;;;24.72;4.95;;;;;;;21.12;44.30;99517.30;2188223;81;21083;-80
2021/09/28 11:48:28;;;;;;;48.45;5.83;;;;;;;20.67;45.12;99522.55;2187848;81;20916;-83
2021/09/28 11:51:29;;;;;;;35.33;5.80;;;;;;;20.64;45.47;99521.28;2187767;81;21003;-80
2021/09/28 11:54:29;;;;;;;14.55;4.22;;;;;;;20.78;45.75;99519.25;2188299;81;20975;-82
2021/09/28 11:57:30;;;;;;;17.02;4.20;;;;;;;21.01;45.51;99517.97;2187873;81;21031;-83
2021/09/28 12:00:31;;;;;;;20.70;5.08;;;;;;;20.82;45.47;99532.04;2187571;81;21391;-83
2021/09/28 12:03:34;;;;;;;29.57;4.40;;;;;;;20.93;45.40;99525.62;2187662;81;21539;-82
2021/09/28 12:06:47;;;;;;;17.73;4.53;;;;;;;20.95;44.07;99526.47;2142323;83;20970;-80
2021/09/28 12:09:48;;;;;;;14.93;4.20;;;;;;;20.80;44.77;99536.02;2142307;83;20938;-79
2021/09/28 12:12:48;;;;;;;15.65;4.30;;;;;;;20.75;45.20;99531.24;2142298;83;20979;-83
2021/09/28 12:15:49;;;;;;;14.98;4.45;;;;;;;20.83;45.04;99526.70;2141799;83;20983;-83
2021/09/28 12:18:49;;;;;;;48.98;6.00;;;;;;;20.94;45.21;99514.55;2142029;83;20959;-82
2021/09/28 12:21:50;;;;;;;10.23;4.60;;;;;;;21.14;45.43;99520.80;2141811;83;21010;-82
2021/09/28 12:24:53;;;;;;;39.15;5.92;;;;;;;21.05;45.64;99519.66;2142113;83;20971;-82
2021/09/28 12:27:53;;;;;;;16.45;4.62;;;;;;;20.98;45.63;99518.90;2142207;83;21006;-82
2021/09/28 12:30:58;;;;;;;12.13;5.10;;;;;;;21.06;44.95;99524.06;2142861;83;20927;-82
2021/09/28 12:33:59;;;;;;;21.70;5.20;;;;;;;20.91;44.09;99522.13;2142926;83;21011;-80
2021/09/28 12:36:59;;;;;;;9.08;3.80;;;;;;;20.67;44.94;99523.88;2143391;83;20932;-81
2021/09/28 12:40:00;;;;;;;5.20;3.60;;;;;;;20.60;44.63;99521.79;2144253;83;20955;-80
2021/09/28 12:43:00;;;;;;;12.75;3.72;;;;;;;20.52;45.38;99522.83;2144507;83;20980;-82
2021/09/28 12:46:03;;;;;;;6.70;3.77;;;;;;;20.63;44.92;99515.55;2144225;83;20990;-80
2021/09/28 12:49:03;;;;;;;8.30;2.90;;;;;;;20.72;44.43;99513.18;2144528;83;20979;-80
2021/09/28 12:52:04;;;;;;;15.85;3.90;;;;;;;20.88;43.88;99514.67;2144329;83;21394;-76
2021/09/28 12:55:04;;;;;;;16.97;3.80;;;;;;;20.99;44.65;99517.55;2142923;83;20951;-81
2021/09/28 12:58:05;;;;;;;11.48;3.60;;;;;;;21.04;44.66;99520.56;2140231;83;21054;-81
2021/09/28 13:01:05;;;;;;;3.58;2.83;;;;;;;21.09;44.38;99523.55;2137017;83;20986;-80
2021/09/28 13:04:06;;;;;;;96.45;11.08;;;;;;;21.07;44.40;99518.72;2135725;83;20940;-81
2021/09/28 13:07:09;;;;;;;9.60;3.42;;;;;;;21.10;44.26;99518.66;2181092;82;21418;-81
2021/09/28 13:10:09;;;;;;;17.15;5.78;;;;;;;21.10;44.66;99519.98;2136793;83;21839;-81
2021/09/28 13:13:09;;;;;;;9.60;3.77;;;;;;;21.15;43.87;99530.51;2136633;83;20987;-81
2021/09/28 13:16:10;;;;;;;13.10;3.65;;;;;;;20.99;43.63;99527.28;2137161;83;20986;-81
2021/09/28 13:19:10;;;;;;;10.75;3.12;;;;;;;20.89;44.06;99521.73;2137118;83;21343;-81
2021/09/28 13:22:12;;;;;;;13.13;3.65;;;;;;;21.01;43.81;99515.31;2137235;83;21066;-81
2021/09/28 13:25:12;;;;;;;8.85;2.70;;;;;;;20.95;44.01;99528.25;2136936;83;21311;-81
2021/09/28 13:28:13;;;;;;;6.45;3.20;;;;;;;20.86;43.71;99533.73;2136988;83;21102;-81
2021/09/28 13:31:13;;;;;;;6.53;3.30;;;;;;;20.48;44.50;99534.39;2137006;83;20991;-82
2021/09/28 13:34:14;;;;;;;4.10;2.40;;;;;;;20.62;44.13;99531.92;2136907;83;20951;-81
2021/09/28 13:37:14;;;;;;;3.58;2.70;;;;;;;20.52;43.96;99531.66;2137177;83;20991;-82
2021/09/28 13:40:15;;;;;;;4.58;2.75;;;;;;;20.40;44.12;99529.22;2137743;83;21007;-81
2021/09/28 13:43:16;;;;;;;8.08;3.08;;;;;;;20.47;44.37;99534.84;2137365;83;20944;-82
2021/09/28 13:46:16;;;;;;;5.75;2.70;;;;;;;20.71;43.77;99538.83;2138104;83;20983;-82
2021/09/28 13:49:17;;;;;;;6.97;2.87;;;;;;;20.72;42.74;99533.95;2137276;83;21351;-82
2021/09/28 13:52:18;;;;;;;3.98;3.00;;;;;;;20.66;43.16;99532.73;2137002;83;21359;-81
2021/09/28 13:55:18;;;;;;;9.08;2.95;;;;;;;20.74;43.26;99530.81;2137133;83;20946;-81
2021/09/28 13:58:19;;;;;;;7.62;3.20;;;;;;;20.71;43.47;99530.00;2132245;83;21011;-83
2021/09/28 14:01:19;;;;;;;31.12;4.80;;;;;;;20.59;43.54;99529.77;2127784;84;20971;-82
2021/09/28 14:04:20;;;;;;;8.18;3.12;;;;;;;20.40;44.00;99530.55;2127947;84;21019;-82
2021/09/28 14:07:20;;;;;;;23.73;17.05;;;;;;;19.98;44.28;99534.28;2128300;84;21000;-81
2021/09/28 14:10:21;;;;;;;7.15;3.02;;;;;;;19.48;44.62;99538.91;2172715;81;20952;-81
2021/09/28 14:13:22;;;;;;;578.65;54.23;;;;;;;19.14;45.74;99537.13;2172544;82;20967;-79
2021/09/28 14:16:22;;;;;;;31.55;4.92;;;;;;;18.84;45.98;99539.63;2173783;81;21336;-80
2021/09/28 14:19:26;;;;;;;5.90;3.22;;;;;;;18.67;46.54;99541.13;2173063;81;20973;-79